sensor_id;sensor_type;location;lat;lon;timestamp;temperature;humidity
64718;DHT22;62506;46.070;14.492;2023-07-02T00:02:21;24.80;63.30
64718;DHT22;62506;46.070;14.492;2023-07-02T00:04:47;24.80;63.30
64718;DHT22;62506;46.070;14.492;2023-07-02T00:07:13;24.80;63.30
64718;DHT22;62506;46.070;14.492;2023-07-02T00:09:40;24.80;63.40
64718;DHT22;62506;46.070;14.492;2023-07-02T00:12:06;24.80;63.40
64718;DHT22;62506;46.070;14.492;2023-07-02T00:14:31;24.80;64.30
64718;DHT22;62506;46.070;14.492;2023-07-02T00:16:57;24.80;63.40
64718;DHT22;62506;46.070;14.492;2023-07-02T00:19:22;24.80;63.50
64718;DHT22;62506;46.070;14.492;2023-07-02T00:21:48;24.80;63.40
64718;DHT22;62506;46.070;14.492;2023-07-02T00:24:14;24.80;63.40
64718;DHT22;62506;46.070;14.492;2023-07-02T00:26:41;24.80;63.40
64718;DHT22;62506;46.070;14.492;2023-07-02T00:29:07;24.80;63.30
64718;DHT22;62506;46.070;14.492;2023-07-02T00:31:34;24.80;63.40
64718;DHT22;62506;46.070;14.492;2023-07-02T00:34:00;24.80;63.30
64718;DHT22;62506;46.070;14.492;2023-07-02T00:36:29;24.80;63.30
64718;DHT22;62506;46.070;14.492;2023-07-02T00:38:55;24.80;63.30
64718;DHT22;62506;46.070;14.492;2023-07-02T00:41:20;24.80;63.30
64718;DHT22;62506;46.070;14.492;2023-07-02T00:43:46;24.80;63.30
64718;DHT22;62506;46.070;14.492;2023-07-02T00:46:15;24.80;63.30
64718;DHT22;62506;46.070;14.492;2023-07-02T00:48:47;24.80;63.20
64718;DHT22;62506;46.070;14.492;2023-07-02T00:51:23;24.80;63.20
64718;DHT22;62506;46.070;14.492;2023-07-02T00:53:49;24.80;63.20
64718;DHT22;62506;46.070;14.492;2023-07-02T00:56:15;24.80;63.10
64718;DHT22;62506;46.070;14.492;2023-07-02T00:58:42;24.80;63.10
64718;DHT22;62506;46.070;14.492;2023-07-02T01:01:13;24.80;63.10
64718;DHT22;62506;46.070;14.492;2023-07-02T01:03:39;24.80;63.10
64718;DHT22;62506;46.070;14.492;2023-07-02T01:06:05;24.80;63.10
64718;DHT22;62506;46.070;14.492;2023-07-02T01:08:30;24.80;63.10
64718;DHT22;62506;46.070;14.492;2023-07-02T01:10:56;24.80;63.00
64718;DHT22;62506;46.070;14.492;2023-07-02T01:13:22;24.80;63.00
64718;DHT22;62506;46.070;14.492;2023-07-02T01:15:48;24.80;63.00
64718;DHT22;62506;46.070;14.492;2023-07-02T01:18:14;24.80;63.00
64718;DHT22;62506;46.070;14.492;2023-07-02T01:20:41;24.80;63.00
64718;DHT22;62506;46.070;14.492;2023-07-02T01:23:06;24.80;63.00
64718;DHT22;62506;46.070;14.492;2023-07-02T01:25:33;24.80;63.10
64718;DHT22;62506;46.070;14.492;2023-07-02T01:28:02;24.80;63.10
64718;DHT22;62506;46.070;14.492;2023-07-02T01:30:27;24.80;63.10
64718;DHT22;62506;46.070;14.492;2023-07-02T01:32:53;24.80;63.10
64718;DHT22;62506;46.070;14.492;2023-07-02T01:35:18;24.80;63.10
64718;DHT22;62506;46.070;14.492;2023-07-02T01:37:44;24.80;63.10
64718;DHT22;62506;46.070;14.492;2023-07-02T01:40:10;24.80;63.10
64718;DHT22;62506;46.070;14.492;2023-07-02T01:42:35;24.80;63.10
64718;DHT22;62506;46.070;14.492;2023-07-02T01:45:01;24.80;63.10
64718;DHT22;62506;46.070;14.492;2023-07-02T01:47:27;24.80;63.10
64718;DHT22;62506;46.070;14.492;2023-07-02T01:49:52;24.80;63.10
64718;DHT22;62506;46.070;14.492;2023-07-02T01:52:18;24.80;63.10
64718;DHT22;62506;46.070;14.492;2023-07-02T01:54:44;24.80;63.10
64718;DHT22;62506;46.070;14.492;2023-07-02T01:57:10;24.80;63.10
64718;DHT22;62506;46.070;14.492;2023-07-02T01:59:36;24.80;63.00
64718;DHT22;62506;46.070;14.492;2023-07-02T02:02:01;24.80;62.90
64718;DHT22;62506;46.070;14.492;2023-07-02T02:04:27;24.80;62.90
64718;DHT22;62506;46.070;14.492;2023-07-02T02:06:52;24.80;62.90
64718;DHT22;62506;46.070;14.492;2023-07-02T02:09:18;24.80;63.00
64718;DHT22;62506;46.070;14.492;2023-07-02T02:11:45;24.80;62.80
64718;DHT22;62506;46.070;14.492;2023-07-02T02:14:11;24.80;62.80
64718;DHT22;62506;46.070;14.492;2023-07-02T02:16:37;24.80;62.80
64718;DHT22;62506;46.070;14.492;2023-07-02T02:19:03;24.80;62.80
64718;DHT22;62506;46.070;14.492;2023-07-02T02:21:28;24.80;62.80
64718;DHT22;62506;46.070;14.492;2023-07-02T02:23:54;24.80;62.80
64718;DHT22;62506;46.070;14.492;2023-07-02T02:26:23;24.80;62.80
64718;DHT22;62506;46.070;14.492;2023-07-02T02:28:50;24.80;62.80
64718;DHT22;62506;46.070;14.492;2023-07-02T02:31:16;24.80;62.70
64718;DHT22;62506;46.070;14.492;2023-07-02T02:33:42;24.80;62.70
64718;DHT22;62506;46.070;14.492;2023-07-02T02:36:07;24.80;62.60
64718;DHT22;62506;46.070;14.492;2023-07-02T02:38:33;24.80;62.70
64718;DHT22;62506;46.070;14.492;2023-07-02T02:40:59;24.80;62.60
64718;DHT22;62506;46.070;14.492;2023-07-02T02:43:25;24.80;62.60
64718;DHT22;62506;46.070;14.492;2023-07-02T02:45:51;24.80;62.60
64718;DHT22;62506;46.070;14.492;2023-07-02T02:48:16;24.80;62.60
64718;DHT22;62506;46.070;14.492;2023-07-02T02:50:42;24.80;62.60
64718;DHT22;62506;46.070;14.492;2023-07-02T02:53:08;24.80;62.60
64718;DHT22;62506;46.070;14.492;2023-07-02T02:55:34;24.80;62.60
64718;DHT22;62506;46.070;14.492;2023-07-02T02:57:59;24.80;62.60
64718;DHT22;62506;46.070;14.492;2023-07-02T03:00:25;24.80;62.60
64718;DHT22;62506;46.070;14.492;2023-07-02T03:02:50;24.80;62.60
64718;DHT22;62506;46.070;14.492;2023-07-02T03:05:16;24.80;62.50
64718;DHT22;62506;46.070;14.492;2023-07-02T03:07:41;24.80;62.50
64718;DHT22;62506;46.070;14.492;2023-07-02T03:10:08;24.80;62.50
64718;DHT22;62506;46.070;14.492;2023-07-02T03:12:33;24.80;62.50
64718;DHT22;62506;46.070;14.492;2023-07-02T03:14:59;24.80;62.50
64718;DHT22;62506;46.070;14.492;2023-07-02T03:17:24;24.80;62.50
64718;DHT22;62506;46.070;14.492;2023-07-02T03:19:50;24.80;62.50
64718;DHT22;62506;46.070;14.492;2023-07-02T03:22:15;24.80;62.60
64718;DHT22;62506;46.070;14.492;2023-07-02T03:24:41;24.80;62.50
64718;DHT22;62506;46.070;14.492;2023-07-02T03:27:06;24.80;62.40
64718;DHT22;62506;46.070;14.492;2023-07-02T03:29:33;24.80;62.60
64718;DHT22;62506;46.070;14.492;2023-07-02T03:31:59;24.80;62.40
64718;DHT22;62506;46.070;14.492;2023-07-02T03:34:24;24.80;62.40
64718;DHT22;62506;46.070;14.492;2023-07-02T03:36:50;24.80;62.40
64718;DHT22;62506;46.070;14.492;2023-07-02T03:39:16;24.80;62.40
64718;DHT22;62506;46.070;14.492;2023-07-02T03:41:44;24.80;62.50
64718;DHT22;62506;46.070;14.492;2023-07-02T03:44:10;24.70;62.30
64718;DHT22;62506;46.070;14.492;2023-07-02T03:46:35;24.60;62.60
64718;DHT22;62506;46.070;14.492;2023-07-02T03:49:02;24.40;63.00
64718;DHT22;62506;46.070;14.492;2023-07-02T03:51:28;24.30;63.50
64718;DHT22;62506;46.070;14.492;2023-07-02T03:53:53;24.20;64.00
64718;DHT22;62506;46.070;14.492;2023-07-02T03:56:19;24.10;64.30
64718;DHT22;62506;46.070;14.492;2023-07-02T03:58:45;24.00;64.60
64718;DHT22;62506;46.070;14.492;2023-07-02T04:01:10;23.90;65.10
64718;DHT22;62506;46.070;14.492;2023-07-02T04:03:36;23.90;65.30
64718;DHT22;62506;46.070;14.492;2023-07-02T04:06:02;23.80;65.40
64718;DHT22;62506;46.070;14.492;2023-07-02T04:08:27;23.80;65.60
64718;DHT22;62506;46.070;14.492;2023-07-02T04:10:55;23.80;65.70
64718;DHT22;62506;46.070;14.492;2023-07-02T04:13:21;23.70;65.70
64718;DHT22;62506;46.070;14.492;2023-07-02T04:15:46;23.80;65.80
64718;DHT22;62506;46.070;14.492;2023-07-02T04:18:12;23.70;66.00
64718;DHT22;62506;46.070;14.492;2023-07-02T04:20:38;23.70;66.30
64718;DHT22;62506;46.070;14.492;2023-07-02T04:23:06;23.60;66.50
64718;DHT22;62506;46.070;14.492;2023-07-02T04:25:32;23.60;66.50
64718;DHT22;62506;46.070;14.492;2023-07-02T04:27:57;23.60;66.60
64718;DHT22;62506;46.070;14.492;2023-07-02T04:30:24;23.50;66.70
64718;DHT22;62506;46.070;14.492;2023-07-02T04:32:50;23.40;66.60
64718;DHT22;62506;46.070;14.492;2023-07-02T04:35:15;23.40;67.00
64718;DHT22;62506;46.070;14.492;2023-07-02T04:37:41;23.40;67.10
64718;DHT22;62506;46.070;14.492;2023-07-02T04:40:07;23.40;67.10
64718;DHT22;62506;46.070;14.492;2023-07-02T04:42:36;23.40;67.00
64718;DHT22;62506;46.070;14.492;2023-07-02T04:45:06;23.40;66.80
64718;DHT22;62506;46.070;14.492;2023-07-02T04:47:32;23.40;66.70
64718;DHT22;62506;46.070;14.492;2023-07-02T04:49:58;23.40;66.70
64718;DHT22;62506;46.070;14.492;2023-07-02T04:52:24;23.40;67.00
64718;DHT22;62506;46.070;14.492;2023-07-02T04:54:49;23.30;67.10
64718;DHT22;62506;46.070;14.492;2023-07-02T04:57:15;23.30;67.30
64718;DHT22;62506;46.070;14.492;2023-07-02T04:59:41;23.40;67.20
64718;DHT22;62506;46.070;14.492;2023-07-02T05:02:06;23.40;67.20
64718;DHT22;62506;46.070;14.492;2023-07-02T05:04:32;23.40;67.20
64718;DHT22;62506;46.070;14.492;2023-07-02T05:06:59;23.40;67.00
64718;DHT22;62506;46.070;14.492;2023-07-02T05:09:24;23.40;67.00
64718;DHT22;62506;46.070;14.492;2023-07-02T05:11:50;23.40;67.00
64718;DHT22;62506;46.070;14.492;2023-07-02T05:14:15;23.40;67.50
64718;DHT22;62506;46.070;14.492;2023-07-02T05:16:41;23.40;67.20
64718;DHT22;62506;46.070;14.492;2023-07-02T05:19:06;23.30;67.30
64718;DHT22;62506;46.070;14.492;2023-07-02T05:21:32;23.30;67.30
64718;DHT22;62506;46.070;14.492;2023-07-02T05:23:57;23.20;67.30
64718;DHT22;62506;46.070;14.492;2023-07-02T05:26:23;23.20;67.40
64718;DHT22;62506;46.070;14.492;2023-07-02T05:28:48;23.30;67.60
64718;DHT22;62506;46.070;14.492;2023-07-02T05:31:14;23.20;68.00
64718;DHT22;62506;46.070;14.492;2023-07-02T05:33:40;23.00;68.60
64718;DHT22;62506;46.070;14.492;2023-07-02T05:36:05;23.00;69.10
64718;DHT22;62506;46.070;14.492;2023-07-02T05:38:31;23.20;68.60
64718;DHT22;62506;46.070;14.492;2023-07-02T05:40:56;23.30;68.40
64718;DHT22;62506;46.070;14.492;2023-07-02T05:43:22;23.40;68.20
64718;DHT22;62506;46.070;14.492;2023-07-02T05:45:49;23.40;68.50
64718;DHT22;62506;46.070;14.492;2023-07-02T05:48:15;23.50;68.70
64718;DHT22;62506;46.070;14.492;2023-07-02T05:50:41;23.50;68.50
64718;DHT22;62506;46.070;14.492;2023-07-02T05:53:06;23.50;68.40
64718;DHT22;62506;46.070;14.492;2023-07-02T05:55:32;23.50;68.40
64718;DHT22;62506;46.070;14.492;2023-07-02T05:57:57;23.50;68.30
64718;DHT22;62506;46.070;14.492;2023-07-02T06:00:26;23.60;68.00
64718;DHT22;62506;46.070;14.492;2023-07-02T06:02:52;23.60;67.90
64718;DHT22;62506;46.070;14.492;2023-07-02T06:05:18;23.60;67.90
64718;DHT22;62506;46.070;14.492;2023-07-02T06:07:43;23.60;67.60
64718;DHT22;62506;46.070;14.492;2023-07-02T06:10:09;23.60;67.60
64718;DHT22;62506;46.070;14.492;2023-07-02T06:12:34;23.60;67.60
64718;DHT22;62506;46.070;14.492;2023-07-02T06:15:00;23.60;67.50
64718;DHT22;62506;46.070;14.492;2023-07-02T06:17:25;23.50;67.50
64718;DHT22;62506;46.070;14.492;2023-07-02T06:19:51;23.50;67.50
64718;DHT22;62506;46.070;14.492;2023-07-02T06:22:16;23.50;67.60
64718;DHT22;62506;46.070;14.492;2023-07-02T06:24:42;23.50;67.70
64718;DHT22;62506;46.070;14.492;2023-07-02T06:27:07;23.40;67.80
64718;DHT22;62506;46.070;14.492;2023-07-02T06:29:33;23.40;67.80
64718;DHT22;62506;46.070;14.492;2023-07-02T06:31:59;23.50;68.00
64718;DHT22;62506;46.070;14.492;2023-07-02T06:34:25;23.40;68.20
64718;DHT22;62506;46.070;14.492;2023-07-02T06:36:53;23.60;68.00
64718;DHT22;62506;46.070;14.492;2023-07-02T06:39:20;23.50;67.60
64718;DHT22;62506;46.070;14.492;2023-07-02T06:41:46;23.60;67.70
64718;DHT22;62506;46.070;14.492;2023-07-02T06:44:11;23.60;67.20
64718;DHT22;62506;46.070;14.492;2023-07-02T06:46:37;23.80;67.10
64718;DHT22;62506;46.070;14.492;2023-07-02T06:49:03;23.90;66.80
64718;DHT22;62506;46.070;14.492;2023-07-02T06:51:28;23.90;66.60
64718;DHT22;62506;46.070;14.492;2023-07-02T06:53:54;23.90;65.90
64718;DHT22;62506;46.070;14.492;2023-07-02T06:56:20;23.90;66.50
64718;DHT22;62506;46.070;14.492;2023-07-02T06:58:45;24.00;66.60
64718;DHT22;62506;46.070;14.492;2023-07-02T07:01:11;24.00;66.50
64718;DHT22;62506;46.070;14.492;2023-07-02T07:03:37;23.90;66.50
64718;DHT22;62506;46.070;14.492;2023-07-02T07:06:02;23.90;66.40
64718;DHT22;62506;46.070;14.492;2023-07-02T07:08:28;23.90;66.30
64718;DHT22;62506;46.070;14.492;2023-07-02T07:10:54;23.90;66.50
64718;DHT22;62506;46.070;14.492;2023-07-02T07:13:20;23.80;66.60
64718;DHT22;62506;46.070;14.492;2023-07-02T07:15:45;23.80;66.80
64718;DHT22;62506;46.070;14.492;2023-07-02T07:18:11;23.80;66.60
64718;DHT22;62506;46.070;14.492;2023-07-02T07:20:38;23.90;66.60
64718;DHT22;62506;46.070;14.492;2023-07-02T07:23:03;23.90;66.30
64718;DHT22;62506;46.070;14.492;2023-07-02T07:25:29;23.90;66.00
64718;DHT22;62506;46.070;14.492;2023-07-02T07:27:55;23.90;66.10
64718;DHT22;62506;46.070;14.492;2023-07-02T07:30:20;23.90;65.80
64718;DHT22;62506;46.070;14.492;2023-07-02T07:32:50;23.90;65.80
64718;DHT22;62506;46.070;14.492;2023-07-02T07:35:16;23.90;65.80
64718;DHT22;62506;46.070;14.492;2023-07-02T07:37:42;23.90;66.80
64718;DHT22;62506;46.070;14.492;2023-07-02T07:40:10;24.00;65.50
64718;DHT22;62506;46.070;14.492;2023-07-02T07:42:35;24.00;65.60
64718;DHT22;62506;46.070;14.492;2023-07-02T07:45:02;24.00;66.30
64718;DHT22;62506;46.070;14.492;2023-07-02T07:47:28;24.00;65.20
64718;DHT22;62506;46.070;14.492;2023-07-02T07:49:54;24.00;64.90
64718;DHT22;62506;46.070;14.492;2023-07-02T07:52:20;24.00;65.00
64718;DHT22;62506;46.070;14.492;2023-07-02T07:54:46;24.00;65.30
64718;DHT22;62506;46.070;14.492;2023-07-02T07:57:11;24.00;65.10
64718;DHT22;62506;46.070;14.492;2023-07-02T07:59:37;24.00;64.60
64718;DHT22;62506;46.070;14.492;2023-07-02T08:02:02;24.10;65.10
64718;DHT22;62506;46.070;14.492;2023-07-02T08:04:28;24.00;65.00
64718;DHT22;62506;46.070;14.492;2023-07-02T08:06:54;24.10;65.00
64718;DHT22;62506;46.070;14.492;2023-07-02T08:09:20;24.10;65.10
64718;DHT22;62506;46.070;14.492;2023-07-02T08:11:46;24.10;65.00
64718;DHT22;62506;46.070;14.492;2023-07-02T08:14:12;24.20;64.90
64718;DHT22;62506;46.070;14.492;2023-07-02T08:16:37;24.20;64.70
64718;DHT22;62506;46.070;14.492;2023-07-02T08:19:03;24.20;64.60
64718;DHT22;62506;46.070;14.492;2023-07-02T08:21:29;24.20;64.70
64718;DHT22;62506;46.070;14.492;2023-07-02T08:23:57;24.30;64.70
64718;DHT22;62506;46.070;14.492;2023-07-02T08:26:25;24.30;64.70
64718;DHT22;62506;46.070;14.492;2023-07-02T08:28:50;24.30;64.30
64718;DHT22;62506;46.070;14.492;2023-07-02T08:31:16;24.30;64.30
64718;DHT22;62506;46.070;14.492;2023-07-02T08:33:41;24.30;64.50
64718;DHT22;62506;46.070;14.492;2023-07-02T08:36:07;24.40;64.20
64718;DHT22;62506;46.070;14.492;2023-07-02T08:38:33;24.40;64.20
64718;DHT22;62506;46.070;14.492;2023-07-02T08:40:58;24.40;64.00
64718;DHT22;62506;46.070;14.492;2023-07-02T08:43:24;24.40;63.80
64718;DHT22;62506;46.070;14.492;2023-07-02T08:45:50;24.40;63.90
64718;DHT22;62506;46.070;14.492;2023-07-02T08:48:16;24.40;64.10
64718;DHT22;62506;46.070;14.492;2023-07-02T08:50:48;24.40;64.30
64718;DHT22;62506;46.070;14.492;2023-07-02T08:53:14;24.50;66.30
64718;DHT22;62506;46.070;14.492;2023-07-02T08:55:40;24.60;64.70
64718;DHT22;62506;46.070;14.492;2023-07-02T08:58:05;24.60;64.10
64718;DHT22;62506;46.070;14.492;2023-07-02T09:00:31;24.70;65.30
64718;DHT22;62506;46.070;14.492;2023-07-02T09:03:10;24.80;64.40
64718;DHT22;62506;46.070;14.492;2023-07-02T09:05:35;24.80;63.00
64718;DHT22;62506;46.070;14.492;2023-07-02T09:08:01;24.80;64.30
64718;DHT22;62506;46.070;14.492;2023-07-02T09:10:30;24.80;62.00
64718;DHT22;62506;46.070;14.492;2023-07-02T09:13:06;24.80;61.30
64718;DHT22;62506;46.070;14.492;2023-07-02T09:15:35;24.80;60.50
64718;DHT22;62506;46.070;14.492;2023-07-02T09:18:01;24.80;61.60
64718;DHT22;62506;46.070;14.492;2023-07-02T09:20:32;24.90;62.30
64718;DHT22;62506;46.070;14.492;2023-07-02T09:22:57;25.00;60.90
64718;DHT22;62506;46.070;14.492;2023-07-02T09:25:33;24.90;61.10
64718;DHT22;62506;46.070;14.492;2023-07-02T09:27:58;24.90;60.80
64718;DHT22;62506;46.070;14.492;2023-07-02T09:30:24;24.80;59.80
64718;DHT22;62506;46.070;14.492;2023-07-02T09:32:50;24.80;59.40
64718;DHT22;62506;46.070;14.492;2023-07-02T09:35:15;24.80;59.40
64718;DHT22;62506;46.070;14.492;2023-07-02T09:37:42;24.80;60.30
64718;DHT22;62506;46.070;14.492;2023-07-02T09:40:08;24.80;60.10
64718;DHT22;62506;46.070;14.492;2023-07-02T09:42:35;24.80;60.10
64718;DHT22;62506;46.070;14.492;2023-07-02T09:45:01;24.80;60.20
64718;DHT22;62506;46.070;14.492;2023-07-02T09:47:27;24.90;60.60
64718;DHT22;62506;46.070;14.492;2023-07-02T09:49:55;25.00;60.50
64718;DHT22;62506;46.070;14.492;2023-07-02T09:52:23;25.00;60.60
64718;DHT22;62506;46.070;14.492;2023-07-02T09:54:49;24.90;60.90
64718;DHT22;62506;46.070;14.492;2023-07-02T09:57:14;24.90;61.30
64718;DHT22;62506;46.070;14.492;2023-07-02T09:59:40;24.90;61.40
64718;DHT22;62506;46.070;14.492;2023-07-02T10:02:07;24.90;61.40
64718;DHT22;62506;46.070;14.492;2023-07-02T10:04:43;24.80;61.70
64718;DHT22;62506;46.070;14.492;2023-07-02T10:07:09;24.80;61.70
64718;DHT22;62506;46.070;14.492;2023-07-02T10:09:35;24.80;61.80
64718;DHT22;62506;46.070;14.492;2023-07-02T10:12:14;24.80;61.70
64718;DHT22;62506;46.070;14.492;2023-07-02T10:14:40;24.80;61.80
64718;DHT22;62506;46.070;14.492;2023-07-02T10:17:06;24.80;61.60
64718;DHT22;62506;46.070;14.492;2023-07-02T10:19:31;24.90;61.80
64718;DHT22;62506;46.070;14.492;2023-07-02T10:22:03;25.00;61.50
64718;DHT22;62506;46.070;14.492;2023-07-02T10:24:30;25.00;61.50
64718;DHT22;62506;46.070;14.492;2023-07-02T10:26:56;25.00;61.20
64718;DHT22;62506;46.070;14.492;2023-07-02T10:29:23;25.00;60.70
64718;DHT22;62506;46.070;14.492;2023-07-02T10:31:52;25.00;60.70
64718;DHT22;62506;46.070;14.492;2023-07-02T10:34:28;25.00;59.60
64718;DHT22;62506;46.070;14.492;2023-07-02T10:36:54;24.90;59.90
64718;DHT22;62506;46.070;14.492;2023-07-02T10:39:19;24.90;60.20
64718;DHT22;62506;46.070;14.492;2023-07-02T10:41:45;24.80;60.60
64718;DHT22;62506;46.070;14.492;2023-07-02T10:44:11;24.80;61.10
64718;DHT22;62506;46.070;14.492;2023-07-02T10:46:43;24.80;61.00
64718;DHT22;62506;46.070;14.492;2023-07-02T10:49:09;24.80;61.50
64718;DHT22;62506;46.070;14.492;2023-07-02T10:51:37;24.80;61.30
64718;DHT22;62506;46.070;14.492;2023-07-02T10:54:03;24.80;62.10
64718;DHT22;62506;46.070;14.492;2023-07-02T10:56:31;24.80;61.60
64718;DHT22;62506;46.070;14.492;2023-07-02T10:58:56;24.90;61.30
64718;DHT22;62506;46.070;14.492;2023-07-02T11:01:23;24.90;61.00
64718;DHT22;62506;46.070;14.492;2023-07-02T11:03:55;24.90;61.50
64718;DHT22;62506;46.070;14.492;2023-07-02T11:06:20;24.90;62.10
64718;DHT22;62506;46.070;14.492;2023-07-02T11:08:46;24.90;62.10
64718;DHT22;62506;46.070;14.492;2023-07-02T11:11:11;25.00;62.40
64718;DHT22;62506;46.070;14.492;2023-07-02T11:13:47;25.00;62.20
64718;DHT22;62506;46.070;14.492;2023-07-02T11:16:19;25.00;62.60
64718;DHT22;62506;46.070;14.492;2023-07-02T11:18:45;25.00;63.70
64718;DHT22;62506;46.070;14.492;2023-07-02T11:21:11;24.90;63.80
64718;DHT22;62506;46.070;14.492;2023-07-02T11:23:36;24.90;64.20
64718;DHT22;62506;46.070;14.492;2023-07-02T11:26:02;24.80;64.10
64718;DHT22;62506;46.070;14.492;2023-07-02T11:28:29;24.80;64.10
64718;DHT22;62506;46.070;14.492;2023-07-02T11:30:55;24.90;64.20
64718;DHT22;62506;46.070;14.492;2023-07-02T11:33:37;24.90;63.80
64718;DHT22;62506;46.070;14.492;2023-07-02T11:36:06;24.90;64.00
64718;DHT22;62506;46.070;14.492;2023-07-02T11:38:36;25.00;64.30
64718;DHT22;62506;46.070;14.492;2023-07-02T11:41:04;25.00;64.00
64718;DHT22;62506;46.070;14.492;2023-07-02T11:43:30;25.00;63.90
64718;DHT22;62506;46.070;14.492;2023-07-02T11:45:56;25.00;64.50
64718;DHT22;62506;46.070;14.492;2023-07-02T11:48:21;25.00;64.50
64718;DHT22;62506;46.070;14.492;2023-07-02T11:50:47;25.00;64.70
64718;DHT22;62506;46.070;14.492;2023-07-02T11:53:12;25.00;64.30
64718;DHT22;62506;46.070;14.492;2023-07-02T11:55:38;25.00;63.90
64718;DHT22;62506;46.070;14.492;2023-07-02T11:58:04;25.00;64.00
64718;DHT22;62506;46.070;14.492;2023-07-02T12:00:29;25.00;63.70
64718;DHT22;62506;46.070;14.492;2023-07-02T12:02:55;25.00;62.90
64718;DHT22;62506;46.070;14.492;2023-07-02T12:05:20;25.00;61.70
64718;DHT22;62506;46.070;14.492;2023-07-02T12:07:46;25.00;63.10
64718;DHT22;62506;46.070;14.492;2023-07-02T12:10:11;25.00;63.10
64718;DHT22;62506;46.070;14.492;2023-07-02T12:12:37;25.00;63.00
64718;DHT22;62506;46.070;14.492;2023-07-02T12:15:03;25.00;63.40
64718;DHT22;62506;46.070;14.492;2023-07-02T12:17:28;25.00;63.20
64718;DHT22;62506;46.070;14.492;2023-07-02T12:19:54;25.00;63.10
64718;DHT22;62506;46.070;14.492;2023-07-02T12:22:20;25.10;63.40
64718;DHT22;62506;46.070;14.492;2023-07-02T12:24:47;25.10;63.00
64718;DHT22;62506;46.070;14.492;2023-07-02T12:27:16;25.10;62.80
64718;DHT22;62506;46.070;14.492;2023-07-02T12:29:42;25.20;63.50
64718;DHT22;62506;46.070;14.492;2023-07-02T12:32:07;25.20;63.50
64718;DHT22;62506;46.070;14.492;2023-07-02T12:34:33;25.20;62.20
64718;DHT22;62506;46.070;14.492;2023-07-02T12:36:59;25.20;62.20
64718;DHT22;62506;46.070;14.492;2023-07-02T12:39:24;25.20;62.20
64718;DHT22;62506;46.070;14.492;2023-07-02T12:41:50;25.20;62.20
64718;DHT22;62506;46.070;14.492;2023-07-02T12:44:15;25.20;62.10
64718;DHT22;62506;46.070;14.492;2023-07-02T12:46:41;25.30;63.10
64718;DHT22;62506;46.070;14.492;2023-07-02T12:49:06;25.30;63.00
64718;DHT22;62506;46.070;14.492;2023-07-02T12:51:32;25.30;63.30
64718;DHT22;62506;46.070;14.492;2023-07-02T12:53:58;25.30;62.90
64718;DHT22;62506;46.070;14.492;2023-07-02T12:56:23;25.40;64.10
64718;DHT22;62506;46.070;14.492;2023-07-02T12:58:49;25.40;64.80
64718;DHT22;62506;46.070;14.492;2023-07-02T13:01:16;25.50;65.00
64718;DHT22;62506;46.070;14.492;2023-07-02T13:03:45;25.50;65.00
64718;DHT22;62506;46.070;14.492;2023-07-02T13:06:12;25.50;65.30
64718;DHT22;62506;46.070;14.492;2023-07-02T13:08:38;25.60;64.60
64718;DHT22;62506;46.070;14.492;2023-07-02T13:11:03;25.60;64.20
64718;DHT22;62506;46.070;14.492;2023-07-02T13:13:29;25.60;63.90
64718;DHT22;62506;46.070;14.492;2023-07-02T13:15:55;25.60;63.60
64718;DHT22;62506;46.070;14.492;2023-07-02T13:18:20;25.60;63.60
64718;DHT22;62506;46.070;14.492;2023-07-02T13:20:46;25.60;63.60
64718;DHT22;62506;46.070;14.492;2023-07-02T13:23:11;25.60;63.30
64718;DHT22;62506;46.070;14.492;2023-07-02T13:25:37;25.60;63.30
64718;DHT22;62506;46.070;14.492;2023-07-02T13:28:03;25.60;62.60
64718;DHT22;62506;46.070;14.492;2023-07-02T13:30:29;25.60;62.30
64718;DHT22;62506;46.070;14.492;2023-07-02T13:32:56;25.60;62.30
64718;DHT22;62506;46.070;14.492;2023-07-02T13:35:22;25.60;62.50
64718;DHT22;62506;46.070;14.492;2023-07-02T13:37:48;25.60;62.60
64718;DHT22;62506;46.070;14.492;2023-07-02T13:40:13;25.60;62.50
64718;DHT22;62506;46.070;14.492;2023-07-02T13:42:40;25.60;62.10
64718;DHT22;62506;46.070;14.492;2023-07-02T13:45:07;25.60;61.80
64718;DHT22;62506;46.070;14.492;2023-07-02T13:47:34;25.60;61.80
64718;DHT22;62506;46.070;14.492;2023-07-02T13:49:59;25.60;62.00
64718;DHT22;62506;46.070;14.492;2023-07-02T13:52:25;25.70;60.80
64718;DHT22;62506;46.070;14.492;2023-07-02T13:54:50;25.70;60.80
64718;DHT22;62506;46.070;14.492;2023-07-02T13:57:16;25.60;60.60
64718;DHT22;62506;46.070;14.492;2023-07-02T13:59:41;25.60;61.10
64718;DHT22;62506;46.070;14.492;2023-07-02T14:02:07;25.60;61.00
64718;DHT22;62506;46.070;14.492;2023-07-02T14:04:33;25.60;60.80
64718;DHT22;62506;46.070;14.492;2023-07-02T14:06:58;25.60;60.30
64718;DHT22;62506;46.070;14.492;2023-07-02T14:09:30;25.60;60.10
64718;DHT22;62506;46.070;14.492;2023-07-02T14:12:05;25.70;60.40
64718;DHT22;62506;46.070;14.492;2023-07-02T14:14:31;25.60;61.10
64718;DHT22;62506;46.070;14.492;2023-07-02T14:16:56;25.70;61.40
64718;DHT22;62506;46.070;14.492;2023-07-02T14:19:22;25.70;61.10
64718;DHT22;62506;46.070;14.492;2023-07-02T14:21:47;25.70;61.10
64718;DHT22;62506;46.070;14.492;2023-07-02T14:24:14;25.70;60.80
64718;DHT22;62506;46.070;14.492;2023-07-02T14:26:39;25.70;60.30
64718;DHT22;62506;46.070;14.492;2023-07-02T14:29:05;25.60;60.40
64718;DHT22;62506;46.070;14.492;2023-07-02T14:31:31;25.60;60.30
64718;DHT22;62506;46.070;14.492;2023-07-02T14:33:56;25.60;60.60
64718;DHT22;62506;46.070;14.492;2023-07-02T14:36:22;25.60;60.20
64718;DHT22;62506;46.070;14.492;2023-07-02T14:38:48;25.60;60.80
64718;DHT22;62506;46.070;14.492;2023-07-02T14:41:13;25.60;60.70
64718;DHT22;62506;46.070;14.492;2023-07-02T14:43:39;25.60;60.60
64718;DHT22;62506;46.070;14.492;2023-07-02T14:46:04;25.60;60.60
64718;DHT22;62506;46.070;14.492;2023-07-02T14:48:30;25.60;60.20
64718;DHT22;62506;46.070;14.492;2023-07-02T14:50:59;25.60;60.30
64718;DHT22;62506;46.070;14.492;2023-07-02T14:53:26;25.60;60.30
64718;DHT22;62506;46.070;14.492;2023-07-02T14:55:56;25.70;60.60
64718;DHT22;62506;46.070;14.492;2023-07-02T14:58:22;25.60;60.50
64718;DHT22;62506;46.070;14.492;2023-07-02T15:00:49;25.70;60.50
64718;DHT22;62506;46.070;14.492;2023-07-02T15:03:15;25.60;60.60
64718;DHT22;62506;46.070;14.492;2023-07-02T15:05:41;25.60;60.60
64718;DHT22;62506;46.070;14.492;2023-07-02T15:08:07;25.60;61.20
64718;DHT22;62506;46.070;14.492;2023-07-02T15:10:33;25.60;62.00